createdAt,value
2023-03-26T00:01:21.964Z,99061.19
2023-03-26T00:03:53.875Z,99059.66
2023-03-26T00:06:23.926Z,99060.69
2023-03-26T00:08:54.172Z,99063.19
2023-03-26T00:11:23.167Z,99058.28
2023-03-26T00:13:53.840Z,99057.00
2023-03-26T00:16:22.323Z,99052.94
2023-03-26T00:18:51.909Z,99051.66
2023-03-26T00:21:22.034Z,99049.81
2023-03-26T00:23:50.506Z,99046.75
2023-03-26T00:26:20.241Z,99052.09
2023-03-26T00:28:51.043Z,99050.44
2023-03-26T00:31:19.510Z,99056.94
2023-03-26T00:33:47.969Z,99061.97
2023-03-26T00:36:17.694Z,99058.78
2023-03-26T00:38:48.211Z,99056.56
2023-03-26T00:41:25.745Z,99059.22
2023-03-26T00:43:56.774Z,99054.34
2023-03-26T00:46:25.626Z,99055.03
2023-03-26T00:48:53.965Z,99055.94
2023-03-26T00:51:22.854Z,99047.31
2023-03-26T00:53:51.762Z,99043.31
2023-03-26T00:56:20.475Z,99038.22
2023-03-26T00:58:50.377Z,99041.88
2023-03-26T01:01:27.679Z,99039.50
2023-03-26T01:04:07.541Z,99043.34
2023-03-26T01:06:38.924Z,99049.97
2023-03-26T01:09:13.887Z,99045.63
2023-03-26T01:11:42.276Z,99054.66
2023-03-26T01:14:12.096Z,99047.47
2023-03-26T01:16:45.237Z,99052.94
2023-03-26T01:19:16.663Z,99051.97
2023-03-26T01:21:45.000Z,99055.16
2023-03-26T01:24:14.638Z,99052.34
2023-03-26T01:26:54.269Z,99054.03
2023-03-26T01:29:25.429Z,99058.53
2023-03-26T01:31:58.249Z,99054.84
2023-03-26T01:34:34.143Z,99055.41
2023-03-26T01:37:13.496Z,99048.38
2023-03-26T01:39:53.493Z,99052.72
2023-03-26T01:42:27.367Z,99047.38
2023-03-26T01:44:58.383Z,99053.44
2023-03-26T01:47:27.137Z,99058.16
2023-03-26T01:49:55.455Z,99056.16
2023-03-26T01:52:26.335Z,99055.47
2023-03-26T01:54:57.764Z,99056.47
2023-03-26T01:57:31.210Z,99050.97
2023-03-26T02:00:07.409Z,99055.63
2023-03-26T02:02:46.284Z,99050.00
2023-03-26T02:05:17.533Z,99057.63
2023-03-26T02:07:51.352Z,99050.28
2023-03-26T02:10:23.456Z,99054.97
2023-03-26T02:12:51.903Z,99053.63
2023-03-26T02:15:20.285Z,99042.94
2023-03-26T02:17:49.479Z,99046.75
2023-03-26T02:20:19.105Z,99039.91
2023-03-26T02:22:47.882Z,99035.38
2023-03-26T02:25:20.410Z,99030.34
2023-03-26T02:27:52.206Z,99027.84
2023-03-26T02:30:25.874Z,99028.13
2023-03-26T02:32:59.534Z,99027.00
2023-03-26T02:35:35.050Z,99031.13
2023-03-26T02:38:04.604Z,99026.47
2023-03-26T02:40:33.221Z,99038.81
2023-03-26T02:43:03.205Z,99028.13
2023-03-26T02:45:33.274Z,99038.13
2023-03-26T02:48:20.476Z,99033.47
2023-03-26T02:51:09.888Z,99027.31
2023-03-26T02:54:01.340Z,99027.44
2023-03-26T02:56:35.589Z,99033.78
2023-03-26T02:59:19.816Z,99025.91
2023-03-26T03:01:53.757Z,99030.13
2023-03-26T03:04:23.420Z,99030.44
2023-03-26T03:06:53.219Z,99032.13
2023-03-26T03:09:22.561Z,99039.97
2023-03-26T03:12:14.146Z,99036.47
2023-03-26T03:14:44.012Z,99036.16
2023-03-26T03:17:12.606Z,99031.81
2023-03-26T03:19:43.832Z,99031.81
2023-03-26T03:22:12.289Z,99032.13
2023-03-26T03:24:43.985Z,99031.56
2023-03-26T03:27:12.867Z,99029.06
2023-03-26T03:29:53.947Z,99029.34
2023-03-26T03:32:54.186Z,99023.88
2023-03-26T03:35:25.393Z,99024.88
2023-03-26T03:37:58.070Z,99020.38
2023-03-26T03:40:26.786Z,99018.53
2023-03-26T03:42:55.568Z,99019.69
2023-03-26T03:45:34.426Z,99023.19
2023-03-26T03:48:13.872Z,99027.38
2023-03-26T03:50:46.171Z,99028.53
2023-03-26T03:53:29.693Z,99026.84
2023-03-26T03:56:02.330Z,99026.03
2023-03-26T03:58:53.812Z,99038.69
2023-03-26T04:01:33.114Z,99027.00
2023-03-26T04:04:07.366Z,99024.31
2023-03-26T04:06:57.329Z,99026.03
2023-03-26T04:09:28.170Z,99030.34
2023-03-26T04:12:00.753Z,99028.00
2023-03-26T04:14:43.669Z,99022.47
2023-03-26T04:17:26.162Z,99028.00
2023-03-26T04:19:57.418Z,99026.31
2023-03-26T04:22:34.922Z,99022.09
2023-03-26T04:25:06.007Z,99028.97
2023-03-26T04:27:44.862Z,99022.94
2023-03-26T04:30:22.083Z,99024.94
2023-03-26T04:33:01.109Z,99019.59
2023-03-26T04:35:35.821Z,99020.56
2023-03-26T04:38:06.673Z,99020.56
2023-03-26T04:40:40.824Z,99022.41
2023-03-26T04:43:20.550Z,99021.28
2023-03-26T04:46:10.807Z,99017.31
2023-03-26T04:48:49.446Z,99009.00
2023-03-26T04:51:18.905Z,99013.31
2023-03-26T04:53:52.410Z,99014.03
2023-03-26T04:56:39.648Z,99011.34
2023-03-26T04:59:09.025Z,99004.34
2023-03-26T05:01:41.995Z,99013.69
2023-03-26T05:04:14.485Z,98999.38
2023-03-26T05:06:43.844Z,99007.06
2023-03-26T05:09:22.347Z,99012.97
2023-03-26T05:12:26.031Z,99003.41
2023-03-26T05:15:00.284Z,99007.38
2023-03-26T05:17:51.810Z,99002.75
2023-03-26T05:20:57.774Z,99003.72
2023-03-26T05:23:28.022Z,99005.41
2023-03-26T05:26:10.506Z,99003.25
2023-03-26T05:28:39.087Z,99008.47
2023-03-26T05:31:15.733Z,99007.31
2023-03-26T05:33:47.765Z,99001.66
2023-03-26T05:36:19.326Z,99000.19
2023-03-26T05:38:52.645Z,99003.41
2023-03-26T05:41:39.605Z,99005.44
2023-03-26T05:44:08.651Z,99010.34
2023-03-26T05:46:37.154Z,99000.00
2023-03-26T05:49:05.794Z,98998.84
2023-03-26T05:51:38.475Z,99003.38
2023-03-26T05:54:39.032Z,99003.06
2023-03-26T05:57:28.540Z,99013.75
2023-03-26T06:00:24.488Z,99006.09
2023-03-26T06:02:56.426Z,99008.47
2023-03-26T06:05:44.390Z,99004.78
2023-03-26T06:08:37.049Z,99010.84
2023-03-26T06:11:08.365Z,99011.53
2023-03-26T06:13:40.132Z,99009.00
2023-03-26T06:16:09.559Z,99003.50
2023-03-26T06:19:08.350Z,99011.53
2023-03-26T06:21:57.397Z,99009.81
2023-03-26T06:24:46.267Z,99010.50
2023-03-26T06:27:25.356Z,99001.47
2023-03-26T06:30:32.311Z,99012.41
2023-03-26T06:33:07.167Z,99004.91
2023-03-26T06:35:44.491Z,99013.97
2023-03-26T06:38:14.142Z,99013.50
2023-03-26T06:40:44.052Z,99010.03
2023-03-26T06:43:27.461Z,99015.78
2023-03-26T06:46:14.711Z,99015.44
2023-03-26T06:49:01.559Z,99019.09
2023-03-26T06:51:48.779Z,99011.75
2023-03-26T06:54:36.984Z,99011.06
2023-03-26T06:57:16.552Z,99012.44
2023-03-26T07:00:05.552Z,99011.78
2023-03-26T07:02:52.613Z,99008.97
2023-03-26T07:05:39.849Z,99004.81
2023-03-26T07:08:31.736Z,99007.84
2023-03-26T07:11:21.011Z,99012.25
2023-03-26T07:14:09.869Z,99012.78
2023-03-26T07:17:04.401Z,99008.06
2023-03-26T07:19:54.911Z,99009.75
2023-03-26T07:22:27.503Z,99014.91
2023-03-26T07:25:08.612Z,99012.91
2023-03-26T07:28:02.052Z,99010.91
2023-03-26T07:31:09.404Z,99017.22
2023-03-26T07:33:49.946Z,99019.06
2023-03-26T07:36:30.288Z,99015.72
2023-03-26T07:39:20.557Z,99016.56
2023-03-26T07:42:25.664Z,99014.75
2023-03-26T07:45:18.712Z,99016.09
2023-03-26T07:48:05.125Z,99008.25
2023-03-26T07:51:00.420Z,99010.25
2023-03-26T07:53:49.476Z,99010.25
2023-03-26T07:56:39.635Z,99015.44
2023-03-26T07:59:24.610Z,99014.09
2023-03-26T08:02:26.268Z,99013.28
2023-03-26T08:05:18.895Z,98999.91
2023-03-26T08:08:26.161Z,99003.31
2023-03-26T08:11:23.782Z,99009.22
2023-03-26T08:14:02.122Z,99008.38
2023-03-26T08:16:33.401Z,99006.03
2023-03-26T08:19:06.276Z,99001.72
2023-03-26T08:21:38.375Z,99001.06
2023-03-26T08:24:11.157Z,98999.72
2023-03-26T08:26:47.857Z,98999.56
2023-03-26T08:29:21.821Z,98995.38
2023-03-26T08:31:50.487Z,98996.88
2023-03-26T08:34:19.084Z,98992.34
2023-03-26T08:36:49.027Z,98988.34
2023-03-26T08:39:17.238Z,98992.88
2023-03-26T08:42:02.348Z,98990.72
2023-03-26T08:44:49.111Z,98993.91
2023-03-26T08:47:38.368Z,98993.22
2023-03-26T08:50:15.726Z,98993.06
2023-03-26T08:52:59.353Z,98990.72
2023-03-26T08:55:41.511Z,98993.88
2023-03-26T08:58:24.950Z,98990.22
2023-03-26T09:01:11.068Z,98985.00
2023-03-26T09:04:09.137Z,98985.00
2023-03-26T09:06:55.154Z,98981.78
2023-03-26T09:09:56.733Z,98984.97
2023-03-26T09:12:51.655Z,98989.00
2023-03-26T09:15:37.666Z,98986.13
2023-03-26T09:18:31.598Z,98983.44
2023-03-26T09:21:13.871Z,98974.84
2023-03-26T09:23:52.833Z,98974.16
2023-03-26T09:26:28.207Z,98979.50
2023-03-26T09:29:11.701Z,98987.19
2023-03-26T09:31:59.719Z,98986.31
2023-03-26T09:34:31.373Z,98979.56
2023-03-26T09:37:12.539Z,98984.78
2023-03-26T09:39:48.347Z,98982.72
2023-03-26T09:42:19.591Z,98981.41
2023-03-26T09:44:59.304Z,98988.13
2023-03-26T09:47:43.901Z,98987.19
2023-03-26T09:50:27.043Z,98983.94
2023-03-26T09:53:08.658Z,98988.50
2023-03-26T09:55:56.793Z,98978.81
2023-03-26T09:58:34.704Z,98977.19
2023-03-26T10:01:09.074Z,98977.84
2023-03-26T10:03:46.888Z,98984.06
2023-03-26T10:06:31.687Z,98979.50
2023-03-26T10:09:09.048Z,98976.13
2023-03-26T10:11:43.446Z,98985.19
2023-03-26T10:14:20.306Z,98981.84
2023-03-26T10:16:55.876Z,98982.50
2023-03-26T10:19:37.310Z,98981.84
2023-03-26T10:22:12.665Z,98984.88
2023-03-26T10:24:48.644Z,98986.53
2023-03-26T10:27:24.318Z,98981.63
2023-03-26T10:30:07.999Z,98984.81
2023-03-26T10:32:40.088Z,98977.75
2023-03-26T10:35:14.155Z,98987.88
2023-03-26T10:37:51.907Z,98980.66
2023-03-26T10:40:24.974Z,98983.53
2023-03-26T10:43:12.573Z,98978.63
2023-03-26T10:45:55.977Z,98981.16
2023-03-26T10:48:45.168Z,98979.81
2023-03-26T10:51:31.807Z,98983.00
2023-03-26T10:54:02.248Z,98981.50
2023-03-26T10:56:36.200Z,98982.69
2023-03-26T10:59:07.455Z,98986.94
2023-03-26T11:01:42.070Z,98985.97
2023-03-26T11:04:20.201Z,98991.88
2023-03-26T11:06:55.612Z,98988.19
2023-03-26T11:09:30.000Z,98981.28
2023-03-26T11:12:26.494Z,98985.00
2023-03-26T11:14:56.382Z,98981.94
2023-03-26T11:17:40.708Z,98978.41
2023-03-26T11:20:13.444Z,98977.06
2023-03-26T11:22:51.754Z,98981.38
2023-03-26T11:25:29.267Z,98972.66
2023-03-26T11:28:06.066Z,98975.47
2023-03-26T11:30:41.428Z,98978.44
2023-03-26T11:33:12.741Z,98963.88
2023-03-26T11:35:43.936Z,98968.06
2023-03-26T11:38:14.971Z,98967.78
2023-03-26T11:40:49.171Z,98959.63
2023-03-26T11:43:29.441Z,98963.91
2023-03-26T11:45:59.228Z,98957.34
2023-03-26T11:48:30.637Z,98950.78
2023-03-26T11:51:02.084Z,98954.75
2023-03-26T11:53:32.375Z,98947.41
2023-03-26T11:56:04.300Z,98945.09
2023-03-26T11:58:36.626Z,98947.34
2023-03-26T12:01:06.975Z,98939.88
2023-03-26T12:03:35.388Z,98940.56
2023-03-26T12:06:04.217Z,98944.19
2023-03-26T12:08:34.676Z,98942.47
2023-03-26T12:11:09.190Z,98936.03
2023-03-26T12:13:42.082Z,98935.38
2023-03-26T12:16:15.546Z,98936.41
2023-03-26T12:18:44.915Z,98938.88
2023-03-26T12:21:14.219Z,98933.69
2023-03-26T12:23:52.714Z,98929.44
2023-03-26T12:26:22.239Z,98931.50
2023-03-26T12:28:52.838Z,98928.88
2023-03-26T12:31:21.352Z,98922.59
2023-03-26T12:34:04.394Z,98920.00
2023-03-26T12:36:34.305Z,98915.22
2023-03-26T12:40:07.643Z,98911.53
2023-03-26T12:42:26.523Z,98916.56
2023-03-26T12:45:16.410Z,98910.00
2023-03-26T12:47:57.927Z,98912.69
2023-03-26T12:50:35.702Z,98909.88
2023-03-26T12:53:21.882Z,98908.69
2023-03-26T12:55:57.361Z,98909.31
2023-03-26T12:58:38.350Z,98910.16
2023-03-26T13:01:16.176Z,98907.59
2023-03-26T13:03:48.147Z,98921.53
2023-03-26T13:06:24.046Z,98919.50
2023-03-26T13:09:08.004Z,98921.47
2023-03-26T13:11:40.141Z,98933.22
2023-03-26T13:14:15.808Z,98932.97
2023-03-26T13:16:50.286Z,98940.25
2023-03-26T13:19:22.279Z,98936.41
2023-03-26T13:21:57.959Z,98937.41
2023-03-26T13:24:31.686Z,98936.72
2023-03-26T13:27:06.945Z,98930.06
2023-03-26T13:29:39.999Z,98922.97
2023-03-26T13:32:14.262Z,98923.34
2023-03-26T13:34:48.430Z,98933.00
2023-03-26T13:37:21.507Z,98920.28
2023-03-26T13:39:56.841Z,98921.06
2023-03-26T13:42:33.940Z,98920.78
2023-03-26T13:45:05.895Z,98915.22
2023-03-26T13:47:38.293Z,98921.81
2023-03-26T13:50:10.142Z,98928.69
2023-03-26T13:52:41.277Z,98924.84
2023-03-26T13:55:20.169Z,98921.81
2023-03-26T13:57:51.677Z,98923.31
2023-03-26T14:00:22.506Z,98919.47
2023-03-26T14:02:58.025Z,98918.13
2023-03-26T14:05:31.368Z,98915.59
2023-03-26T14:08:03.297Z,98912.75
2023-03-26T14:10:34.558Z,98910.19
2023-03-26T14:13:06.310Z,98909.88
2023-03-26T14:15:38.502Z,98912.56
2023-03-26T14:18:25.083Z,98906.88
2023-03-26T14:21:02.150Z,98906.22
2023-03-26T14:23:40.460Z,98903.53
2023-03-26T14:26:15.756Z,98894.16
2023-03-26T14:28:58.868Z,98904.72
2023-03-26T14:31:30.835Z,98894.50
2023-03-26T14:34:13.058Z,98908.38
2023-03-26T14:36:53.172Z,98898.16
2023-03-26T14:39:32.819Z,98899.88
2023-03-26T14:42:03.570Z,98900.41
2023-03-26T14:44:47.971Z,98891.13
2023-03-26T14:47:18.704Z,98892.34
2023-03-26T14:50:06.705Z,98896.06
2023-03-26T14:52:38.679Z,98892.91
2023-03-26T14:55:14.269Z,98894.34
2023-03-26T14:58:00.468Z,98892.03
2023-03-26T15:00:47.301Z,98892.38
2023-03-26T15:03:34.880Z,98890.69
2023-03-26T15:06:19.866Z,98894.66
2023-03-26T15:09:07.026Z,98897.09
2023-03-26T15:11:41.350Z,98899.59
2023-03-26T15:14:24.473Z,98896.56
2023-03-26T15:17:13.729Z,98902.44
2023-03-26T15:20:00.383Z,98892.38
2023-03-26T15:22:46.523Z,98897.19
2023-03-26T15:25:29.806Z,98895.94
2023-03-26T15:28:16.670Z,98887.41
2023-03-26T15:31:10.334Z,98886.59
2023-03-26T15:33:59.408Z,98883.41
2023-03-26T15:36:51.060Z,98882.59
2023-03-26T15:39:59.226Z,98882.09
2023-03-26T15:42:32.956Z,98877.75
2023-03-26T15:45:14.487Z,98883.94
2023-03-26T15:47:50.748Z,98879.25
2023-03-26T15:50:46.656Z,98880.41
2023-03-26T15:53:23.894Z,98876.25
2023-03-26T15:56:04.592Z,98881.91
2023-03-26T15:58:38.363Z,98880.59
2023-03-26T16:01:19.367Z,98880.09
2023-03-26T16:03:53.493Z,98882.78
2023-03-26T16:06:28.121Z,98877.56
2023-03-26T16:09:08.166Z,98880.06
2023-03-26T16:11:50.844Z,98886.44
2023-03-26T16:14:23.187Z,98884.41
2023-03-26T16:16:58.842Z,98885.63
2023-03-26T16:19:36.417Z,98881.91
2023-03-26T16:22:06.255Z,98891.69
2023-03-26T16:24:35.373Z,98891.16
2023-03-26T16:27:10.791Z,98885.66
2023-03-26T16:29:54.201Z,98894.84
2023-03-26T16:32:26.311Z,98891.19
2023-03-26T16:34:56.774Z,98902.06
2023-03-26T16:37:38.747Z,98897.91
2023-03-26T16:40:25.809Z,98907.44
2023-03-26T16:42:56.553Z,98907.94
2023-03-26T16:45:30.032Z,98902.91
2023-03-26T16:48:03.876Z,98911.25
2023-03-26T16:50:42.773Z,98908.88
2023-03-26T16:53:23.293Z,98921.59
2023-03-26T16:55:57.106Z,98919.28
2023-03-26T16:58:31.187Z,98914.38
2023-03-26T17:01:08.275Z,98912.84
2023-03-26T17:03:54.737Z,98912.81
2023-03-26T17:06:48.047Z,98914.13
2023-03-26T17:09:23.701Z,98910.16
2023-03-26T17:11:58.121Z,98909.19
2023-03-26T17:14:32.418Z,98913.91
2023-03-26T17:17:19.259Z,98906.38
2023-03-26T17:19:51.924Z,98915.25
2023-03-26T17:22:28.168Z,98911.53
2023-03-26T17:25:03.262Z,98912.22
2023-03-26T17:28:19.900Z,98900.63
2023-03-26T17:30:58.578Z,98912.56
2023-03-26T17:33:29.672Z,98908.88
2023-03-26T17:36:21.797Z,98908.22
2023-03-26T17:39:01.060Z,98910.72
2023-03-26T17:41:47.817Z,98918.31
2023-03-26T17:44:35.080Z,98920.31
2023-03-26T17:47:03.865Z,98905.59
2023-03-26T17:49:33.596Z,98916.97
2023-03-26T17:52:04.414Z,98917.81
2023-03-26T17:54:35.462Z,98910.63
2023-03-26T17:57:06.330Z,98918.31
2023-03-26T17:59:36.776Z,98920.03
2023-03-26T18:02:13.685Z,98930.22
2023-03-26T18:04:45.991Z,98921.19
2023-03-26T18:07:25.346Z,98910.31
2023-03-26T18:10:03.608Z,98921.00
2023-03-26T18:12:41.060Z,98917.97
2023-03-26T18:15:14.922Z,98921.34
2023-03-26T18:17:45.388Z,98923.00
2023-03-26T18:20:21.278Z,98924.63
2023-03-26T18:22:49.878Z,98920.53
2023-03-26T18:25:25.435Z,98920.41
2023-03-26T18:27:53.808Z,98913.34
2023-03-26T18:30:23.666Z,98913.44
2023-03-26T18:33:00.125Z,98909.00
2023-03-26T18:35:29.511Z,98911.69
2023-03-26T18:38:00.307Z,98910.63
2023-03-26T18:40:34.140Z,98903.16
2023-03-26T18:43:02.453Z,98905.00
2023-03-26T18:45:32.895Z,98905.69
2023-03-26T18:48:02.458Z,98909.19
2023-03-26T18:50:34.994Z,98907.88
2023-03-26T18:53:03.900Z,98905.19
2023-03-26T18:55:39.561Z,98907.84
2023-03-26T18:58:21.622Z,98909.13
2023-03-26T19:00:53.045Z,98909.03
2023-03-26T19:03:24.397Z,98914.00
2023-03-26T19:05:53.569Z,98912.50
2023-03-26T19:08:24.071Z,98918.28
2023-03-26T19:10:54.662Z,98919.91
2023-03-26T19:13:23.722Z,98923.91
2023-03-26T19:15:53.327Z,98918.56
2023-03-26T19:18:23.700Z,98920.59
2023-03-26T19:20:52.959Z,98907.41
2023-03-26T19:23:22.666Z,98901.69
2023-03-26T19:25:52.848Z,98904.81
2023-03-26T19:28:23.969Z,98904.53
2023-03-26T19:30:54.488Z,98891.47
2023-03-26T19:33:23.821Z,98897.72
2023-03-26T19:35:56.639Z,98907.25
2023-03-26T19:38:26.221Z,98897.72
2023-03-26T19:40:56.092Z,98898.69
2023-03-26T19:43:27.091Z,98882.91
2023-03-26T19:46:00.544Z,98901.84
2023-03-26T19:48:45.388Z,98885.16
2023-03-26T19:51:21.505Z,98886.00
2023-03-26T19:53:51.840Z,98882.47
2023-03-26T19:56:20.996Z,98875.34
2023-03-26T19:58:50.937Z,98876.34
2023-03-26T20:01:20.213Z,98879.06
2023-03-26T20:03:50.320Z,98877.56
2023-03-26T20:06:21.003Z,98873.03
2023-03-26T20:08:53.322Z,98875.91
2023-03-26T20:11:22.662Z,98871.56
2023-03-26T20:13:52.620Z,98873.56
2023-03-26T20:16:24.556Z,98873.75
2023-03-26T20:18:53.019Z,98867.34
2023-03-26T20:21:21.279Z,98863.28
2023-03-26T20:23:49.731Z,98857.78
2023-03-26T20:26:20.379Z,98867.31
2023-03-26T20:28:53.175Z,98859.97
2023-03-26T20:31:25.399Z,98858.13
2023-03-26T20:33:54.697Z,98857.81
2023-03-26T20:36:34.147Z,98862.81
2023-03-26T20:39:06.157Z,98866.69
2023-03-26T20:41:35.997Z,98859.97
2023-03-26T20:44:06.142Z,98861.00
2023-03-26T20:46:35.859Z,98857.53
2023-03-26T20:49:04.229Z,98854.56
2023-03-26T20:51:32.483Z,98860.06
2023-03-26T20:54:01.083Z,98858.06
2023-03-26T20:56:29.640Z,98858.88
2023-03-26T21:01:29.628Z,98862.88
2023-03-26T21:03:59.504Z,98853.13
2023-03-26T21:06:27.949Z,98855.19
2023-03-26T21:08:56.382Z,98853.69
2023-03-26T21:11:27.597Z,98853.53
2023-03-26T21:13:59.456Z,98854.91
2023-03-26T21:16:28.268Z,98844.88
2023-03-26T21:18:56.959Z,98852.91
2023-03-26T21:21:36.439Z,98854.22
2023-03-26T21:24:10.808Z,98853.88
2023-03-26T21:26:44.226Z,98853.38
2023-03-26T21:29:13.270Z,98852.56
2023-03-26T21:31:41.920Z,98848.53
2023-03-26T21:34:13.507Z,98848.50
2023-03-26T21:36:47.245Z,98843.09
2023-03-26T21:39:16.778Z,98846.25
2023-03-26T21:41:48.541Z,98837.34
2023-03-26T21:44:34.604Z,98849.06
2023-03-26T21:47:03.680Z,98836.78
2023-03-26T21:49:32.402Z,98837.75
2023-03-26T21:52:02.647Z,98843.16
2023-03-26T21:54:32.151Z,98847.50
2023-03-26T21:57:08.334Z,98844.81
2023-03-26T21:59:41.433Z,98839.47
2023-03-26T22:02:14.634Z,98837.06
2023-03-26T22:04:47.385Z,98843.31
2023-03-26T22:07:19.481Z,98837.63
2023-03-26T22:09:48.264Z,98836.13
2023-03-26T22:12:17.022Z,98843.00
2023-03-26T22:14:45.526Z,98838.28
2023-03-26T22:17:13.953Z,98832.72
2023-03-26T22:19:42.666Z,98834.72
2023-03-26T22:22:11.549Z,98834.41
2023-03-26T22:24:41.452Z,98829.81
2023-03-26T22:27:09.907Z,98835.03
2023-03-26T22:29:41.348Z,98832.38
2023-03-26T22:32:09.795Z,98830.53
2023-03-26T22:34:38.934Z,98823.44
2023-03-26T22:37:07.381Z,98824.25
2023-03-26T22:39:36.312Z,98824.78
2023-03-26T22:42:06.198Z,98823.72
2023-03-26T22:44:34.668Z,98823.72
2023-03-26T22:47:03.169Z,98827.94
2023-03-26T22:49:31.602Z,98826.09
2023-03-26T22:51:59.978Z,98827.72
2023-03-26T22:54:28.635Z,98823.97
2023-03-26T22:56:57.124Z,98818.06
2023-03-26T22:59:27.270Z,98815.75
2023-03-26T23:01:55.997Z,98817.03
2023-03-26T23:04:31.219Z,98816.00
2023-03-26T23:07:00.274Z,98812.94
2023-03-26T23:09:28.567Z,98814.81
2023-03-26T23:11:57.029Z,98812.16
2023-03-26T23:14:26.944Z,98809.91
2023-03-26T23:16:55.316Z,98814.06
2023-03-26T23:19:23.543Z,98812.25
2023-03-26T23:21:52.593Z,98814.69
2023-03-26T23:24:20.872Z,98809.34
2023-03-26T23:26:51.035Z,98811.38
2023-03-26T23:29:19.786Z,98807.84
2023-03-26T23:31:49.706Z,98806.84
2023-03-26T23:34:18.718Z,98803.06
2023-03-26T23:36:47.409Z,98803.06
2023-03-26T23:39:16.082Z,98800.91
2023-03-26T23:41:44.332Z,98802.19
2023-03-26T23:44:14.693Z,98803.03
2023-03-26T23:46:43.075Z,98800.13
2023-03-26T23:49:13.874Z,98792.59
2023-03-26T23:51:42.340Z,98792.59
2023-03-26T23:54:11.793Z,98791.81
2023-03-26T23:56:40.147Z,98790.84
2023-03-26T23:59:08.636Z,98788.25
